Time;durP1;ratioP1;P1;durP2;ratioP2;P2;SDS_P1;SDS_P2;PMS_P1;PMS_P2;Temp;Humidity;BMP_temperature;BMP_pressure;BME280_temperature;BME280_humidity;BME280_pressure;Samples;Min_cycle;Max_cycle;Signal;HPM_P1;HPM_P2
2023/03/13 00:02:54;;;;;;;;;;;;;;;7.23;37.10;100666.59;5366667;32;35500;-64
2023/03/13 00:05:56;;;;;;;;;;;;;;;7.87;36.70;100654.69;5341856;32;35230;-68
2023/03/13 00:09:01;;;;;;;;;;;;;;;8.58;35.84;100659.06;5371908;32;38375;-68
2023/03/13 00:12:03;;;;;;;;;;;;;;;8.53;36.05;100659.16;5347227;32;35574;-68
2023/03/13 00:15:05;;;;;;;;;;;;;;;7.59;38.20;100671.00;5358060;32;35443;-69
2023/03/13 00:18:07;;;;;;;;;;;;;;;7.25;39.24;100670.87;5352804;32;35682;-62
2023/03/13 00:21:09;;;;;;;;;;;;;;;7.24;39.24;100661.31;5361966;32;45283;-63
2023/03/13 00:24:11;;;;;;;;;;;;;;;6.99;39.77;100634.81;5374079;32;36722;-68
2023/03/13 00:27:13;;;;;;;;;;;;;;;7.02;40.08;100654.81;5349402;32;35565;-63
2023/03/13 00:30:15;;;;;;;;;;;;;;;7.04;40.08;100645.19;5358575;32;34957;-63
2023/03/13 00:33:17;;;;;;;;;;;;;;;6.78;40.88;100648.31;5352820;32;35975;-70
2023/03/13 00:36:22;;;;;;;;;;;;;;;7.01;40.64;100655.69;5369163;32;36256;-70
2023/03/13 00:39:24;;;;;;;;;;;;;;;6.84;41.10;100656.03;5363846;32;36117;-68
2023/03/13 00:42:26;;;;;;;;;;;;;;;6.57;41.97;100648.72;5359299;32;35286;-62
2023/03/13 00:45:28;;;;;;;;;;;;;;;6.65;41.80;100632.03;5357853;32;35006;-69
2023/03/13 00:48:30;;;;;;;;;;;;;;;6.75;41.66;100632.69;5335927;32;35525;-69
2023/03/13 00:51:32;;;;;;;;;;;;;;;6.77;41.86;100638.78;5368923;32;36352;-70
2023/03/13 00:54:34;;;;;;;;;;;;;;;6.41;42.83;100641.16;5362744;32;35501;-67
2023/03/13 00:57:37;;;;;;;;;;;;;;;6.74;42.41;100641.44;5368863;32;35841;-69
2023/03/13 01:00:39;;;;;;;;;;;;;;;6.84;42.23;100632.53;5343776;32;45338;-70
2023/03/13 01:03:41;;;;;;;;;;;;;;;6.78;42.19;100623.06;5373987;32;35599;-70
2023/03/13 01:06:43;;;;;;;;;;;;;;;6.68;42.80;100620.66;5364472;32;35839;-61
2023/03/13 01:09:45;;;;;;;;;;;;;;;6.36;43.52;100614.28;5361817;32;35032;-63
2023/03/13 01:12:47;;;;;;;;;;;;;;;6.24;44.06;100596.22;5369933;32;35317;-68
2023/03/13 01:15:49;;;;;;;;;;;;;;;6.09;44.51;100594.75;5351378;32;36321;-68
2023/03/13 01:18:52;;;;;;;;;;;;;;;6.43;44.06;100613.25;5364769;32;35732;-70
2023/03/13 01:21:53;;;;;;;;;;;;;;;6.67;43.57;100609.34;5350884;32;35223;-64
2023/03/13 01:24:55;;;;;;;;;;;;;;;6.59;43.94;100610.37;5365578;32;35847;-62
2023/03/13 01:27:57;;;;;;;;;;;;;;;6.75;43.83;100609.19;5366556;32;35464;-70
2023/03/13 01:30:59;;;;;;;;;;;;;;;6.65;44.04;100605.91;5342327;32;36358;-63
2023/03/13 01:34:03;;;;;;;;;;;;;;;6.61;44.18;100609.47;5381154;32;36452;-70
2023/03/13 01:37:05;;;;;;;;;;;;;;;6.76;43.90;100592.63;5336052;32;36185;-68
2023/03/13 01:40:07;;;;;;;;;;;;;;;6.86;43.98;100603.75;5375770;32;34934;-63
2023/03/13 01:43:20;;;;;;;;;;;;;;;6.97;43.76;100591.34;5352718;32;46602;-62
2023/03/13 01:46:28;;;;;;;;;;;;;;;7.25;43.22;100591.59;5341467;32;36642;-61
2023/03/13 01:49:32;;;;;;;;;;;;;;;7.60;42.54;100588.19;5376405;32;35573;-69
2023/03/13 01:52:34;;;;;;;;;;;;;;;7.55;42.58;100580.44;5349084;32;36125;-68
2023/03/13 01:55:36;;;;;;;;;;;;;;;7.29;43.15;100581.03;5360292;32;35537;-67
2023/03/13 01:58:38;;;;;;;;;;;;;;;7.60;42.54;100582.94;5340850;32;34896;-69
2023/03/13 02:01:40;;;;;;;;;;;;;;;8.20;41.23;100586.69;5361102;32;44535;-63
2023/03/13 02:04:44;;;;;;;;;;;;;;;8.25;41.00;100576.97;5349084;32;36131;-63
2023/03/13 02:08:06;;;;;;;;;;;;;;;8.07;41.35;100558.22;5345404;32;36031;-66
2023/03/13 02:11:11;;;;;;;;;;;;;;;8.23;41.31;100560.41;5371568;32;47373;-62
2023/03/13 02:14:13;;;;;;;;;;;;;;;8.31;41.09;100566.31;5355927;32;35433;-69
2023/03/13 02:17:15;;;;;;;;;;;;;;;8.05;41.59;100565.25;5385270;32;35569;-68
2023/03/13 02:20:17;;;;;;;;;;;;;;;8.29;41.23;100573.34;5370389;32;35446;-68
2023/03/13 02:23:39;;;;;;;;;;;;;;;8.45;40.91;100574.69;5349607;32;34797;-62
2023/03/13 02:26:41;;;;;;;;;;;;;;;8.22;41.58;100574.41;5385285;32;44842;-61
2023/03/13 02:29:43;;;;;;;;;;;;;;;8.32;41.52;100568.91;5372077;32;35942;-68
2023/03/13 02:32:45;;;;;;;;;;;;;;;8.52;41.22;100564.91;5383939;32;35502;-64
2023/03/13 02:35:47;;;;;;;;;;;;;;;8.00;42.31;100568.87;5367063;32;35714;-62
2023/03/13 02:38:51;;;;;;;;;;;;;;;8.51;41.12;100568.44;5385439;32;35894;-67
2023/03/13 02:41:53;;;;;;;;;;;;;;;8.28;41.99;100569.88;5346955;32;34231;-68
2023/03/13 02:44:55;;;;;;;;;;;;;;;8.34;41.91;100566.22;5357554;32;35377;-62
2023/03/13 02:47:57;;;;;;;;;;;;;;;8.31;41.87;100555.84;5381450;32;35640;-62
2023/03/13 02:50:59;;;;;;;;;;;;;;;8.57;41.43;100568.25;5359265;32;36606;-69
2023/03/13 02:54:02;;;;;;;;;;;;;;;8.20;42.47;100565.75;5353312;32;36765;-69
2023/03/13 02:57:04;;;;;;;;;;;;;;;7.90;43.44;100568.25;5349719;32;36056;-68
2023/03/13 03:00:11;;;;;;;;;;;;;;;8.43;42.15;100573.84;5368309;32;35103;-63
2023/03/13 03:03:13;;;;;;;;;;;;;;;7.91;42.94;100556.00;5347667;32;46677;-61
2023/03/13 03:06:15;;;;;;;;;;;;;;;7.90;43.00;100568.25;5341565;32;35797;-61
2023/03/13 03:09:17;;;;;;;;;;;;;;;8.28;42.68;100595.19;5390620;32;35400;-63
2023/03/13 03:12:19;;;;;;;;;;;;;;;7.40;44.25;100600.84;5369720;32;35151;-62
2023/03/13 03:15:21;;;;;;;;;;;;;;;7.93;43.53;100589.13;5390571;32;35136;-67
2023/03/13 03:18:23;;;;;;;;;;;;;;;6.78;45.83;100603.91;5371139;32;36175;-62
2023/03/13 03:21:25;;;;;;;;;;;;;;;7.82;43.59;100588.50;5379565;32;35989;-70
2023/03/13 03:24:27;;;;;;;;;;;;;;;7.85;43.80;100593.66;5383237;32;35680;-68
2023/03/13 03:27:29;;;;;;;;;;;;;;;7.36;44.71;100591.34;5342390;32;35712;-61
2023/03/13 03:30:30;;;;;;;;;;;;;;;7.23;45.55;100594.25;5377527;32;36192;-61
2023/03/13 03:33:32;;;;;;;;;;;;;;;6.97;46.29;100589.59;5360644;32;33414;-63
2023/03/13 03:36:34;;;;;;;;;;;;;;;7.51;44.85;100591.00;5347582;32;35319;-62
2023/03/13 03:39:36;;;;;;;;;;;;;;;6.72;47.11;100585.75;5353203;32;34672;-68
2023/03/13 03:42:38;;;;;;;;;;;;;;;7.53;45.46;100581.34;5373121;32;45528;-67
2023/03/13 03:45:40;;;;;;;;;;;;;;;7.78;44.79;100565.91;5359552;32;35457;-61
2023/03/13 03:48:42;;;;;;;;;;;;;;;7.93;44.36;100568.19;5347436;32;35488;-63
2023/03/13 03:51:44;;;;;;;;;;;;;;;7.37;45.87;100580.00;5383341;32;35226;-70
2023/03/13 03:54:46;;;;;;;;;;;;;;;7.19;46.72;100573.41;5353156;32;36073;-64
2023/03/13 03:57:48;;;;;;;;;;;;;;;7.21;47.14;100600.38;5366594;32;36307;-63
2023/03/13 04:00:50;;;;;;;;;;;;;;;7.30;46.71;100571.44;5350023;32;34723;-69
2023/03/13 04:03:51;;;;;;;;;;;;;;;6.89;48.04;100614.13;5359758;32;35901;-69
2023/03/13 04:06:53;;;;;;;;;;;;;;;6.88;48.21;100586.28;5344707;32;35915;-67
2023/03/13 04:09:55;;;;;;;;;;;;;;;6.84;48.43;100627.31;5356385;32;35846;-69
2023/03/13 04:12:57;;;;;;;;;;;;;;;6.71;49.09;100626.69;5367872;32;35397;-69
2023/03/13 04:15:59;;;;;;;;;;;;;;;6.72;49.61;100627.53;5348668;32;35402;-68
2023/03/13 04:19:01;;;;;;;;;;;;;;;6.81;49.82;100624.72;5358140;32;35506;-62
2023/03/13 04:22:03;;;;;;;;;;;;;;;7.28;48.80;100625.53;5350311;32;36793;-62
2023/03/13 04:25:05;;;;;;;;;;;;;;;6.89;49.40;100622.84;5357222;32;36238;-61
2023/03/13 04:28:07;;;;;;;;;;;;;;;7.76;46.79;100620.91;5355141;32;35862;-62
2023/03/13 04:31:09;;;;;;;;;;;;;;;7.29;47.78;100637.69;5333700;32;44821;-62
2023/03/13 04:34:11;;;;;;;;;;;;;;;6.85;49.36;100642.09;5357479;32;35587;-62
2023/03/13 04:37:13;;;;;;;;;;;;;;;7.08;48.91;100639.00;5348303;32;36978;-63
2023/03/13 04:40:15;;;;;;;;;;;;;;;6.82;49.37;100636.03;5363248;32;35194;-62
2023/03/13 04:43:16;;;;;;;;;;;;;;;6.90;49.96;100632.41;5358670;32;34808;-69
2023/03/13 04:46:19;;;;;;;;;;;;;;;7.84;47.16;100616.34;5345653;32;36204;-64
2023/03/13 04:49:21;;;;;;;;;;;;;;;7.59;47.62;100613.44;5356069;32;35892;-67
2023/03/13 04:52:22;;;;;;;;;;;;;;;7.44;48.16;100628.66;5368015;32;35817;-67
2023/03/13 04:55:24;;;;;;;;;;;;;;;7.48;47.56;100640.78;5366196;32;36215;-63
2023/03/13 04:58:26;;;;;;;;;;;;;;;7.75;47.38;100634.03;5322049;32;868383;-62
2023/03/13 05:01:28;;;;;;;;;;;;;;;6.95;48.87;100645.34;5360596;32;35372;-68
2023/03/13 05:04:30;;;;;;;;;;;;;;;7.66;47.56;100650.78;5341214;32;37206;-70
2023/03/13 05:07:32;;;;;;;;;;;;;;;7.92;47.10;100646.72;5367578;32;35492;-65
2023/03/13 05:10:34;;;;;;;;;;;;;;;8.14;46.13;100635.69;5357292;32;35363;-63
2023/03/13 05:13:36;;;;;;;;;;;;;;;8.42;45.60;100658.56;5348453;32;35425;-68
2023/03/13 05:16:38;;;;;;;;;;;;;;;7.61;47.41;100668.38;5371671;32;35298;-69
2023/03/13 05:19:40;;;;;;;;;;;;;;;7.58;47.57;100674.50;5354193;32;44905;-61
2023/03/13 05:22:42;;;;;;;;;;;;;;;8.45;45.56;100657.66;5364600;32;35512;-62
2023/03/13 05:25:43;;;;;;;;;;;;;;;8.25;45.90;100640.66;5344937;32;35870;-62
2023/03/13 05:28:45;;;;;;;;;;;;;;;8.65;44.99;100666.69;5356353;32;35847;-61
2023/03/13 05:31:47;;;;;;;;;;;;;;;7.06;48.16;100646.87;5368494;32;36086;-63
2023/03/13 05:34:49;;;;;;;;;;;;;;;7.88;46.71;100670.34;5352470;32;35430;-69
2023/03/13 05:37:51;;;;;;;;;;;;;;;7.05;48.88;100680.87;5363677;32;35792;-69
2023/03/13 05:40:53;;;;;;;;;;;;;;;7.71;47.86;100675.09;5342371;32;34773;-69
2023/03/13 05:43:55;;;;;;;;;;;;;;;7.83;47.64;100673.97;5371881;32;36158;-68
2023/03/13 05:46:57;;;;;;;;;;;;;;;7.64;48.00;100677.91;5342803;32;36098;-63
2023/03/13 05:49:58;;;;;;;;;;;;;;;8.18;46.47;100669.62;5353013;32;35233;-63
2023/03/13 05:53:00;;;;;;;;;;;;;;;7.73;46.93;100655.00;5378687;32;35381;-62
2023/03/13 05:56:02;;;;;;;;;;;;;;;7.89;46.75;100655.50;5346815;32;35611;-61
2023/03/13 05:59:04;;;;;;;;;;;;;;;7.81;47.26;100670.53;5361084;32;35403;-63
2023/03/13 06:02:06;;;;;;;;;;;;;;;7.73;47.39;100670.72;5345549;32;35833;-63
2023/03/13 06:05:08;;;;;;;;;;;;;;;8.11;46.16;100661.97;5349317;32;39068;-67
2023/03/13 06:08:10;;;;;;;;;;;;;;;8.23;46.12;100662.53;5359224;32;36206;-61
2023/03/13 06:11:12;;;;;;;;;;;;;;;7.58;47.69;100673.66;5351521;32;34892;-61
2023/03/13 06:14:14;;;;;;;;;;;;;;;8.15;45.99;100666.19;5360316;32;36079;-69
2023/03/13 06:17:16;;;;;;;;;;;;;;;7.18;48.96;100678.88;5351387;32;36546;-60
2023/03/13 06:20:18;;;;;;;;;;;;;;;7.20;49.05;100656.19;5366077;32;35719;-70
2023/03/13 06:23:19;;;;;;;;;;;;;;;6.68;50.51;100673.75;5350440;32;34772;-61
2023/03/13 06:26:23;;;;;;;;;;;;;;;7.29;49.14;100664.69;5366760;32;34446;-71
2023/03/13 06:29:25;;;;;;;;;;;;;;;7.96;46.89;100656.22;5347060;32;36188;-69
2023/03/13 06:32:27;;;;;;;;;;;;;;;7.51;48.51;100667.69;5351773;32;35626;-66
2023/03/13 06:35:29;;;;;;;;;;;;;;;7.72;48.08;100660.25;5371393;32;35642;-69
2023/03/13 06:38:32;;;;;;;;;;;;;;;9.08;44.67;100656.78;5353356;32;36102;-72
2023/03/13 06:41:34;;;;;;;;;;;;;;;8.39;46.19;100654.28;5377382;32;34963;-63
2023/03/13 06:44:36;;;;;;;;;;;;;;;9.89;45.53;100662.19;5352840;32;34864;-70
2023/03/13 06:47:38;;;;;;;;;;;;;;;9.69;42.91;100658.44;5366656;32;42773;-69
2023/03/13 06:50:40;;;;;;;;;;;;;;;9.59;43.13;100656.12;5353791;32;33999;-69
2023/03/13 06:53:42;;;;;;;;;;;;;;;9.40;43.61;100663.69;5346364;32;35350;-69
2023/03/13 06:56:44;;;;;;;;;;;;;;;10.42;41.35;100657.84;5338964;32;34830;-70
2023/03/13 06:59:46;;;;;;;;;;;;;;;11.42;38.97;100660.37;5364170;32;35904;-67
2023/03/13 07:02:48;;;;;;;;;;;;;;;9.63;42.64;100661.25;5359194;32;36213;-71
2023/03/13 07:05:56;;;;;;;;;;;;;;;10.87;40.52;100662.41;5324776;32;34921;-68
2023/03/13 07:08:59;;;;;;;;;;;;;;;10.09;40.88;100651.91;5363756;32;36018;-66
2023/03/13 07:12:02;;;;;;;;;;;;;;;11.59;37.72;100651.81;5330044;32;35783;-69
2023/03/13 07:15:06;;;;;;;;;;;;;;;10.63;40.26;100660.66;5326161;32;35614;-67
2023/03/13 07:18:08;;;;;;;;;;;;;;;11.53;38.08;100657.34;5363158;32;37217;-69
2023/03/13 07:21:10;;;;;;;;;;;;;;;11.95;36.51;100649.53;5359485;32;34676;-67
2023/03/13 07:24:12;;;;;;;;;;;;;;;12.60;35.07;100643.25;5358638;32;36251;-69
2023/03/13 07:27:16;;;;;;;;;;;;;;;10.96;37.42;100653.34;5331789;32;34622;-67
2023/03/13 07:30:18;;;;;;;;;;;;;;;10.11;39.48;100642.25;5357994;32;33677;-69
2023/03/13 07:33:20;;;;;;;;;;;;;;;10.48;38.48;100643.63;5362025;32;34976;-65
2023/03/13 07:36:22;;;;;;;;;;;;;;;10.45;38.44;100646.38;5353101;32;34657;-66
2023/03/13 07:39:24;;;;;;;;;;;;;;;10.03;39.44;100644.22;5370168;32;36577;-65
2023/03/13 07:42:26;;;;;;;;;;;;;;;9.95;39.20;100638.38;5357837;32;36029;-63
2023/03/13 07:45:28;;;;;;;;;;;;;;;9.46;40.34;100651.25;5371325;32;35502;-71
2023/03/13 07:48:31;;;;;;;;;;;;;;;10.02;39.12;100642.53;5358171;32;36162;-65
2023/03/13 07:51:33;;;;;;;;;;;;;;;10.01;39.53;100636.41;5366232;32;34805;-77
2023/03/13 07:54:44;;;;;;;;;;;;;;;10.58;38.46;100629.28;5346850;32;44627;-84
2023/03/13 07:57:46;;;;;;;;;;;;;;;12.41;35.14;100623.87;5347451;32;35331;-62
2023/03/13 08:00:48;;;;;;;;;;;;;;;12.73;34.27;100606.66;5372497;32;35382;-75
2023/03/13 08:03:50;;;;;;;;;;;;;;;11.86;35.26;100620.94;5344587;32;35271;-65
2023/03/13 08:06:53;;;;;;;;;;;;;;;11.18;36.43;100621.81;5369368;32;36200;-70
2023/03/13 08:09:55;;;;;;;;;;;;;;;10.37;38.17;100611.59;5359336;32;34793;-71
2023/03/13 08:12:57;;;;;;;;;;;;;;;10.30;38.11;100603.06;5367018;32;36665;-76
2023/03/13 08:16:03;;;;;;;;;;;;;;;10.88;36.83;100597.50;5367975;32;34804;-74
2023/03/13 08:19:05;;;;;;;;;;;;;;;11.14;36.30;100597.38;5366193;32;34737;-62
2023/03/13 08:22:08;;;;;;;;;;;;;;;10.11;37.67;100586.19;5373934;32;44677;-64
2023/03/13 08:25:11;;;;;;;;;;;;;;;9.07;39.89;100592.13;5356492;32;34594;-66
2023/03/13 08:28:13;;;;;;;;;;;;;;;9.09;40.36;100596.44;5384921;32;36083;-79
2023/03/13 08:31:16;;;;;;;;;;;;;;;9.05;40.60;100589.56;5363646;32;36333;-66
2023/03/13 08:34:18;;;;;;;;;;;;;;;9.28;39.98;100580.16;5363402;32;37456;-75
2023/03/13 08:37:20;;;;;;;;;;;;;;;8.72;41.31;100574.81;5382131;32;34920;-65
2023/03/13 08:40:22;;;;;;;;;;;;;;;9.51;39.96;100572.41;5364657;32;36141;-64
2023/03/13 08:43:24;;;;;;;;;;;;;;;9.45;39.93;100569.97;5371977;32;34790;-65
2023/03/13 08:46:28;;;;;;;;;;;;;;;10.25;38.64;100570.88;5361360;32;34038;-64
2023/03/13 08:49:30;;;;;;;;;;;;;;;10.22;38.72;100577.03;5360556;32;35950;-65
2023/03/13 08:52:32;;;;;;;;;;;;;;;10.05;39.31;100571.53;5351213;32;36128;-74
2023/03/13 08:55:34;;;;;;;;;;;;;;;10.28;38.43;100555.00;5368094;32;34768;-74
2023/03/13 08:58:36;;;;;;;;;;;;;;;10.79;37.45;100562.75;5369434;32;34858;-77
2023/03/13 09:01:38;;;;;;;;;;;;;;;10.93;36.67;100556.97;5367039;32;45064;-67
2023/03/13 09:04:40;;;;;;;;;;;;;;;11.03;36.36;100555.72;5354417;32;35235;-69
2023/03/13 09:07:42;;;;;;;;;;;;;;;10.58;36.80;100553.91;5337892;32;34440;-79
2023/03/13 09:10:44;;;;;;;;;;;;;;;10.41;37.32;100552.78;5369621;32;36107;-78
2023/03/13 09:13:47;;;;;;;;;;;;;;;10.05;38.35;100550.53;5360268;32;37143;-66
2023/03/13 09:16:49;;;;;;;;;;;;;;;10.72;36.44;100556.03;5344562;32;34754;-71
2023/03/13 09:19:51;;;;;;;;;;;;;;;10.88;36.30;100526.50;5368263;32;36768;-73
2023/03/13 09:23:01;;;;;;;;;;;;;;;11.16;36.33;100545.59;5358286;32;37062;-60
2023/03/13 09:26:03;;;;;;;;;;;;;;;11.13;36.19;100538.66;5381084;32;34903;-73
2023/03/13 09:29:08;;;;;;;;;;;;;;;11.30;35.87;100526.62;5368943;32;37089;-64
2023/03/13 09:32:11;;;;;;;;;;;;;;;11.38;35.46;100519.28;5392339;32;44552;-71
2023/03/13 09:35:13;;;;;;;;;;;;;;;11.88;34.80;100519.88;5354819;32;34623;-86
2023/03/13 09:38:19;;;;;;;;;;;;;;;11.46;35.18;100517.19;5373386;32;34873;-67
2023/03/13 09:41:26;;;;;;;;;;;;;;;11.32;35.04;100517.75;5388398;32;34650;-75
2023/03/13 09:44:30;;;;;;;;;;;;;;;11.74;34.46;100516.94;5339335;32;36482;-71
2023/03/13 09:47:42;;;;;;;;;;;;;;;13.12;32.63;100497.59;5376564;32;34614;-60
2023/03/13 09:50:47;;;;;;;;;;;;;;;12.72;32.87;100473.09;5366285;32;44625;-61
2023/03/13 09:53:58;;;;;;;;;;;;;;;14.39;30.82;100507.94;5340463;32;34688;-66
2023/03/13 09:57:10;;;;;;;;;;;;;;;14.57;30.06;100499.06;5358162;32;34721;-66
2023/03/13 10:00:15;;;;;;;;;;;;;;;16.23;28.20;100493.97;5345497;32;44890;-74
2023/03/13 10:03:28;;;;;;;;;;;;;;;15.03;29.00;100493.03;5366285;32;34644;-74
2023/03/13 10:06:32;;;;;;;;;;;;;;;15.80;28.22;100484.22;5348586;32;37203;-64
2023/03/13 10:09:36;;;;;;;;;;;;;;;16.63;27.10;100467.63;5366770;32;34751;-74
2023/03/13 10:12:41;;;;;;;;;;;;;;;16.96;26.82;100458.50;5370274;32;44340;-61
2023/03/13 10:15:49;;;;;;;;;;;;;;;19.47;23.97;100455.19;5376863;32;34634;-68
2023/03/13 10:18:52;;;;;;;;;;;;;;;20.94;21.83;100441.91;5373400;32;35285;-75
2023/03/13 10:21:55;;;;;;;;;;;;;;;19.18;23.51;100454.66;5346385;32;35219;-66
2023/03/13 10:25:26;;;;;;;;;;;;;;;21.96;20.74;100450.34;5378514;32;34727;-72
2023/03/13 10:28:30;;;;;;;;;;;;;;;20.75;21.47;100447.03;5357014;32;35482;-68
2023/03/13 10:31:33;;;;;;;;;;;;;;;20.94;21.46;100428.56;5365441;32;36254;-71
2023/03/13 10:34:45;;;;;;;;;;;;;;;21.28;21.42;100425.75;5336517;32;34606;-74
2023/03/13 10:37:47;;;;;;;;;;;;;;;23.24;19.22;100418.41;5357668;32;45103;-80
2023/03/13 10:40:58;;;;;;;;;;;;;;;21.56;20.48;100435.88;5384805;32;34828;-75
2023/03/13 10:44:04;;;;;;;;;;;;;;;22.69;19.30;100419.87;5355818;32;36856;-72
2023/03/13 10:47:08;;;;;;;;;;;;;;;22.86;19.36;100421.94;5359431;32;34805;-83
2023/03/13 10:50:17;;;;;;;;;;;;;;;21.93;19.74;100430.06;5354442;32;43307;-68
2023/03/13 10:53:23;;;;;;;;;;;;;;;21.81;19.86;100417.75;5345006;32;35438;-67
2023/03/13 10:56:27;;;;;;;;;;;;;;;24.22;17.77;100417.31;5364837;32;34407;-64
2023/03/13 10:59:30;;;;;;;;;;;;;;;23.17;18.39;100403.03;5333425;32;36328;-71
2023/03/13 11:02:34;;;;;;;;;;;;;;;23.74;17.95;100409.38;5369479;32;34771;-63
2023/03/13 11:05:42;;;;;;;;;;;;;;;21.53;20.02;100406.72;5347203;32;37967;-65
2023/03/13 11:08:44;;;;;;;;;;;;;;;22.89;18.90;100377.91;5372525;32;44966;-72
2023/03/13 11:11:49;;;;;;;;;;;;;;;21.01;20.47;100386.16;5374586;32;34674;-83
2023/03/13 11:14:57;;;;;;;;;;;;;;;19.53;22.33;100380.09;5361300;32;35038;-63
2023/03/13 11:18:06;;;;;;;;;;;;;;;19.41;22.85;100389.84;5380832;32;35977;-71
2023/03/13 11:21:10;;;;;;;;;;;;;;;21.35;20.82;100376.19;5353181;32;44605;-73
2023/03/13 11:24:23;;;;;;;;;;;;;;;20.52;21.59;100380.31;5343083;32;34988;-74
2023/03/13 11:27:28;;;;;;;;;;;;;;;20.78;21.39;100370.16;5351545;32;34805;-72
2023/03/13 11:30:33;;;;;;;;;;;;;;;19.46;22.74;100385.03;5357809;32;34863;-76
2023/03/13 11:33:37;;;;;;;;;;;;;;;17.78;25.17;100356.50;5369916;32;36191;-76
2023/03/13 11:36:54;;;;;;;;;;;;;;;18.28;24.64;100347.59;5345723;32;44882;-72
2023/03/13 11:40:05;;;;;;;;;;;;;;;19.03;23.70;100339.47;5363177;32;36205;-71
2023/03/13 11:43:26;;;;;;;;;;;;;;;18.80;24.06;100337.66;5362001;32;34706;-65
2023/03/13 11:46:32;;;;;;;;;;;;;;;19.90;22.57;100343.44;5346774;32;36428;-72
2023/03/13 11:49:34;;;;;;;;;;;;;;;19.25;23.46;100341.34;5358968;32;38663;-74
2023/03/13 11:52:36;;;;;;;;;;;;;;;20.61;22.24;100322.66;5350250;32;36144;-66
2023/03/13 11:55:57;;;;;;;;;;;;;;;20.23;22.68;100328.41;5357146;32;44390;-71
2023/03/13 11:59:06;;;;;;;;;;;;;;;20.91;22.01;100324.59;5370969;32;34741;-69
2023/03/13 12:02:22;;;;;;;;;;;;;;;19.71;23.28;100316.53;5333925;32;43747;-68
2023/03/13 12:05:25;;;;;;;;;;;;;;;20.93;21.65;100295.97;5361490;32;36009;-70
2023/03/13 12:08:29;;;;;;;;;;;;;;;20.12;22.37;100281.22;5338191;32;36706;-66
2023/03/13 12:11:42;;;;;;;;;;;;;;;19.88;23.10;100302.69;5347937;32;36155;-68
2023/03/13 12:14:50;;;;;;;;;;;;;;;19.33;23.69;100291.00;5382073;32;46150;-74
2023/03/13 12:18:01;;;;;;;;;;;;;;;17.89;25.44;100295.44;5338682;32;34708;-67
2023/03/13 12:21:04;;;;;;;;;;;;;;;18.79;24.26;100280.87;5362721;32;36716;-80
2023/03/13 12:24:21;;;;;;;;;;;;;;;19.55;23.48;100270.66;5364248;32;34869;-74
2023/03/13 12:27:31;;;;;;;;;;;;;;;20.04;23.03;100258.81;5355509;32;34688;-77
2023/03/13 12:30:41;;;;;;;;;;;;;;;19.82;23.35;100260.50;5359822;32;34816;-68
2023/03/13 12:33:45;;;;;;;;;;;;;;;20.46;23.23;100251.81;5353300;32;44483;-75
2023/03/13 12:36:48;;;;;;;;;;;;;;;21.66;22.95;100255.91;5382663;32;36164;-69
2023/03/13 12:39:53;;;;;;;;;;;;;;;21.39;21.73;100254.66;5341714;32;34907;-65
2023/03/13 12:42:56;;;;;;;;;;;;;;;21.41;21.44;100238.47;5348920;32;34396;-75
2023/03/13 12:46:22;;;;;;;;;;;;;;;19.90;23.46;100234.09;5364444;32;34684;-73
2023/03/13 12:49:34;;;;;;;;;;;;;;;21.54;21.69;100225.72;5349508;32;36687;-70
2023/03/13 12:52:45;;;;;;;;;;;;;;;23.78;19.62;100210.37;5385994;32;34735;-66
2023/03/13 12:55:51;;;;;;;;;;;;;;;22.91;20.32;100204.44;5363794;32;44638;-70
2023/03/13 12:58:56;;;;;;;;;;;;;;;23.26;19.75;100187.72;5378396;32;35129;-65
2023/03/13 13:01:58;;;;;;;;;;;;;;;24.52;18.46;100181.62;5353726;32;35359;-66
2023/03/13 13:05:00;;;;;;;;;;;;;;;26.20;16.88;100159.50;5336132;32;34865;-79
2023/03/13 13:08:03;;;;;;;;;;;;;;;24.20;18.89;100174.09;5352961;32;35004;-68
2023/03/13 13:11:24;;;;;;;;;;;;;;;23.98;19.29;100162.81;5357510;32;35877;-71
2023/03/13 13:14:26;;;;;;;;;;;;;;;25.35;17.99;100158.72;5375439;32;35060;-76
2023/03/13 13:17:33;;;;;;;;;;;;;;;26.98;16.31;100161.75;5355470;32;34786;-67
2023/03/13 13:20:43;;;;;;;;;;;;;;;25.29;17.65;100175.50;5363501;32;34610;-68
2023/03/13 13:23:46;;;;;;;;;;;;;;;24.53;18.75;100183.31;5363926;32;43331;-70
2023/03/13 13:26:49;;;;;;;;;;;;;;;24.38;18.81;100182.19;5370280;32;36188;-66
2023/03/13 13:29:53;;;;;;;;;;;;;;;22.06;21.25;100172.94;5357708;32;36122;-68
2023/03/13 13:32:55;;;;;;;;;;;;;;;23.40;20.17;100163.09;5355471;32;34769;-75
2023/03/13 13:36:20;;;;;;;;;;;;;;;24.38;19.55;100158.84;5351848;32;34791;-79
2023/03/13 13:39:46;;;;;;;;;;;;;;;26.66;17.17;100146.47;5369317;32;36270;-73
2023/03/13 13:42:58;;;;;;;;;;;;;;;27.37;16.41;100138.53;5346189;32;38952;-72
2023/03/13 13:46:02;;;;;;;;;;;;;;;25.18;18.32;100143.50;5373317;32;33580;-66
2023/03/13 13:49:07;;;;;;;;;;;;;;;21.94;21.89;100134.75;5361436;32;36121;-81
2023/03/13 13:52:09;;;;;;;;;;;;;;;21.01;23.12;100132.34;5360805;32;44460;-65
2023/03/13 13:55:29;;;;;;;;;;;;;;;19.15;25.71;100137.91;5355944;32;36230;-84
2023/03/13 13:58:31;;;;;;;;;;;;;;;18.79;26.37;100129.13;5341270;32;36362;-66
2023/03/13 14:01:33;;;;;;;;;;;;;;;18.99;26.36;100111.59;5365675;32;34932;-65
2023/03/13 14:04:36;;;;;;;;;;;;;;;18.70;26.86;100108.56;5328921;32;34774;-74
2023/03/13 14:07:38;;;;;;;;;;;;;;;18.34;27.19;100109.50;5351764;32;44290;-82
2023/03/13 14:10:45;;;;;;;;;;;;;;;18.57;26.86;100110.44;5363505;32;36162;-72
2023/03/13 14:14:06;;;;;;;;;;;;;;;17.99;27.78;100114.81;5344465;32;35611;-61
2023/03/13 14:17:08;;;;;;;;;;;;;;;18.41;27.16;100116.06;5369358;32;37037;-63
2023/03/13 14:20:29;;;;;;;;;;;;;;;17.12;28.95;100115.78;5362238;32;34764;-63
2023/03/13 14:23:34;;;;;;;;;;;;;;;17.32;28.81;100121.41;5373792;32;33781;-64
2023/03/13 14:26:38;;;;;;;;;;;;;;;17.06;29.41;100119.72;5351079;32;45001;-84
2023/03/13 14:29:40;;;;;;;;;;;;;;;17.12;29.61;100116.62;5348822;32;36349;-65
2023/03/13 14:32:42;;;;;;;;;;;;;;;17.95;28.55;100113.34;5357143;32;36031;-78
2023/03/13 14:35:44;;;;;;;;;;;;;;;17.39;29.36;100116.50;5347540;32;34885;-78
2023/03/13 14:38:51;;;;;;;;;;;;;;;17.42;29.39;100118.06;5370417;32;34806;-76
2023/03/13 14:41:53;;;;;;;;;;;;;;;17.63;29.23;100108.53;5352995;32;36280;-76
2023/03/13 14:44:55;;;;;;;;;;;;;;;17.72;29.19;100093.78;5344524;32;35568;-75
2023/03/13 14:48:04;;;;;;;;;;;;;;;18.06;28.94;100110.75;5332298;32;37476;-70
2023/03/13 14:51:10;;;;;;;;;;;;;;;17.62;29.60;100114.81;5346732;32;35081;-72
2023/03/13 14:54:42;;;;;;;;;;;;;;;17.52;29.74;100109.34;5376155;32;44471;-72
2023/03/13 14:58:14;;;;;;;;;;;;;;;18.09;28.99;100099.88;5354907;32;44726;-63
2023/03/13 15:01:23;;;;;;;;;;;;;;;18.57;28.37;100099.78;5348605;32;44457;-70
2023/03/13 15:04:44;;;;;;;;;;;;;;;18.20;29.10;100099.91;5367967;32;34859;-66
2023/03/13 15:07:53;;;;;;;;;;;;;;;18.41;29.04;100094.78;5352554;32;46893;-66
2023/03/13 15:10:56;;;;;;;;;;;;;;;17.95;29.64;100090.25;5387864;32;34777;-65
2023/03/13 15:13:58;;;;;;;;;;;;;;;18.25;29.30;100087.13;5360014;32;33834;-65
2023/03/13 15:17:00;;;;;;;;;;;;;;;17.97;29.88;100093.69;5349371;32;36137;-74
2023/03/13 15:20:06;;;;;;;;;;;;;;;18.64;28.96;100079.72;5357500;32;35847;-64
2023/03/13 15:23:11;;;;;;;;;;;;;;;17.84;30.04;100080.44;5353610;32;43426;-75
2023/03/13 15:26:13;;;;;;;;;;;;;;;17.83;30.00;100068.09;5367979;32;35868;-67
2023/03/13 15:29:17;;;;;;;;;;;;;;;17.90;29.85;100062.31;5363612;32;34774;-66
2023/03/13 15:32:22;;;;;;;;;;;;;;;17.95;29.91;100057.50;5380120;32;34573;-79
2023/03/13 15:35:30;;;;;;;;;;;;;;;17.96;30.01;100054.72;5370091;32;34121;-64
2023/03/13 15:38:32;;;;;;;;;;;;;;;17.80;30.08;100059.50;5363916;32;34626;-68
2023/03/13 15:41:37;;;;;;;;;;;;;;;17.44;30.56;100055.03;5381016;32;35836;-67
2023/03/13 15:44:39;;;;;;;;;;;;;;;17.28;30.97;100048.19;5372791;32;44295;-69
2023/03/13 15:47:44;;;;;;;;;;;;;;;17.47;30.70;100039.75;5381266;32;34833;-68
2023/03/13 15:50:53;;;;;;;;;;;;;;;16.61;32.17;100050.28;5366839;32;33361;-72
2023/03/13 15:53:55;;;;;;;;;;;;;;;16.84;31.53;100023.97;5351666;32;35351;-74